createdAt,value
2023-01-11T00:01:10.742Z,1.92
2023-01-11T00:03:38.664Z,1.52
2023-01-11T00:06:08.153Z,2.40
2023-01-11T00:08:36.044Z,1.08
2023-01-11T00:11:04.395Z,2.78
2023-01-11T00:13:32.449Z,1.35
2023-01-11T00:16:07.375Z,1.90
2023-01-11T00:18:36.000Z,3.22
2023-01-11T00:21:08.208Z,1.40
2023-01-11T00:23:37.914Z,1.83
2023-01-11T00:26:08.706Z,2.05
2023-01-11T00:28:36.855Z,3.38
2023-01-11T00:31:04.898Z,1.83
2023-01-11T00:33:32.786Z,2.15
2023-01-11T00:36:00.685Z,3.47
2023-01-11T00:38:43.639Z,1.70
2023-01-11T00:41:31.942Z,2.88
2023-01-11T00:44:18.946Z,1.65
2023-01-11T00:47:05.350Z,4.25
2023-01-11T00:49:33.390Z,1.67
2023-01-11T00:52:01.522Z,1.42
2023-01-11T00:54:29.351Z,4.43
2023-01-11T00:56:57.183Z,1.38
2023-01-11T00:59:25.036Z,2.15
2023-01-11T01:01:52.921Z,2.25
2023-01-11T01:04:20.747Z,1.20
2023-01-11T01:06:50.769Z,3.25
2023-01-11T01:09:18.632Z,1.55
2023-01-11T01:11:46.518Z,1.42
2023-01-11T01:14:28.323Z,1.27
2023-01-11T01:17:07.276Z,1.60
2023-01-11T01:19:38.482Z,1.17
2023-01-11T01:22:06.533Z,2.78
2023-01-11T01:24:34.802Z,1.45
2023-01-11T01:27:02.827Z,1.55
2023-01-11T01:29:30.994Z,1.90
2023-01-11T01:31:58.830Z,2.05
2023-01-11T01:34:26.863Z,1.33
2023-01-11T01:36:54.776Z,1.70
2023-01-11T01:39:22.634Z,1.40
2023-01-11T01:41:50.460Z,4.03
2023-01-11T01:45:02.331Z,1.45
2023-01-11T01:47:44.404Z,2.55
2023-01-11T01:50:25.686Z,1.20
2023-01-11T01:53:00.408Z,3.33
2023-01-11T01:55:35.997Z,4.38
2023-01-11T01:58:10.491Z,1.02
2023-01-11T02:00:44.403Z,7.78
2023-01-11T02:03:19.934Z,1.73
2023-01-11T02:05:48.110Z,2.30
2023-01-11T02:08:27.681Z,0.95
2023-01-11T02:10:55.927Z,0.95
2023-01-11T02:13:23.883Z,1.20
2023-01-11T02:16:07.535Z,3.00
2023-01-11T02:18:37.519Z,2.75
2023-01-11T02:21:43.199Z,3.47
2023-01-11T02:24:45.769Z,1.40
2023-01-11T02:27:45.370Z,1.33
2023-01-11T02:30:36.960Z,1.20
2023-01-11T02:35:57.046Z,1.15
2023-01-11T02:39:02.351Z,2.33
2023-01-11T02:42:14.643Z,1.85
2023-01-11T02:45:02.211Z,0.90
2023-01-11T02:47:56.766Z,1.45
2023-01-11T02:50:44.194Z,2.30
2023-01-11T02:54:02.546Z,0.98
2023-01-11T02:56:37.688Z,1.13
2023-01-11T02:59:05.915Z,1.27
2023-01-11T03:01:35.365Z,1.02
2023-01-11T03:04:03.278Z,1.90
2023-01-11T03:06:35.454Z,0.98
2023-01-11T03:09:03.476Z,1.30
2023-01-11T03:12:20.421Z,5.15
2023-01-11T03:14:51.411Z,2.17
2023-01-11T03:17:51.499Z,1.08
2023-01-11T03:20:38.224Z,0.70
2023-01-11T03:23:25.442Z,0.90
2023-01-11T03:26:31.320Z,1.33
2023-01-11T03:29:30.835Z,0.95
2023-01-11T03:31:58.721Z,0.93
2023-01-11T03:35:08.924Z,1.27
2023-01-11T03:37:47.956Z,1.13
2023-01-11T03:40:25.635Z,2.78
2023-01-11T03:43:11.648Z,1.10
2023-01-11T03:46:08.753Z,1.35
2023-01-11T03:48:55.775Z,1.30
2023-01-11T03:51:29.651Z,1.30
2023-01-11T03:54:01.280Z,1.52
2023-01-11T03:57:14.730Z,1.33
2023-01-11T03:59:42.955Z,1.50
2023-01-11T04:02:20.310Z,3.53
2023-01-11T04:04:48.382Z,1.73
2023-01-11T04:07:16.357Z,4.20
2023-01-11T04:09:44.601Z,1.38
2023-01-11T04:12:12.496Z,2.65
2023-01-11T04:14:40.365Z,1.35
2023-01-11T04:17:08.339Z,2.03
2023-01-11T04:19:36.179Z,3.38
2023-01-11T04:22:04.103Z,1.67
2023-01-11T04:24:31.948Z,2.10
2023-01-11T04:26:59.771Z,5.60
2023-01-11T04:29:27.760Z,1.77
2023-01-11T04:31:55.675Z,1.73
2023-01-11T04:34:23.684Z,1.75
2023-01-11T04:36:51.652Z,1.75
2023-01-11T04:39:19.545Z,1.80
2023-01-11T04:42:05.865Z,1.67
2023-01-11T04:44:33.762Z,1.40
2023-01-11T04:47:01.631Z,1.77
2023-01-11T04:49:29.496Z,1.88
2023-01-11T04:51:57.371Z,1.75
2023-01-11T04:54:25.283Z,1.67
2023-01-11T04:56:53.127Z,1.40
2023-01-11T04:59:21.083Z,1.88
2023-01-11T05:01:48.985Z,1.35
2023-01-11T05:04:16.900Z,3.08
2023-01-11T05:06:44.949Z,1.42
2023-01-11T05:09:15.104Z,1.80
2023-01-11T05:11:43.381Z,1.40
2023-01-11T05:14:11.531Z,1.50
2023-01-11T05:16:39.527Z,1.40
2023-01-11T05:19:07.646Z,1.67
2023-01-11T05:21:42.224Z,1.30
2023-01-11T05:24:23.080Z,1.80
2023-01-11T05:26:52.367Z,2.22
2023-01-11T05:29:21.191Z,1.95
2023-01-11T05:31:49.625Z,2.33
2023-01-11T05:34:18.343Z,2.42
2023-01-11T05:36:46.250Z,2.10
2023-01-11T05:39:14.900Z,1.75
2023-01-11T05:41:42.976Z,1.77
2023-01-11T05:44:33.009Z,1.70
2023-01-11T05:47:01.002Z,2.67
2023-01-11T05:49:28.832Z,1.80
2023-01-11T05:51:56.708Z,2.13
2023-01-11T05:54:24.539Z,3.30
2023-01-11T05:56:52.462Z,2.38
2023-01-11T05:59:20.436Z,2.38
2023-01-11T06:01:48.530Z,4.57
2023-01-11T06:04:16.442Z,2.28
2023-01-11T06:06:44.409Z,2.95
2023-01-11T06:09:12.371Z,3.08
2023-01-11T06:11:40.288Z,3.00
2023-01-11T06:14:08.251Z,4.70
2023-01-11T06:16:36.307Z,3.35
2023-01-11T06:19:04.382Z,2.97
2023-01-11T06:21:32.286Z,2.85
2023-01-11T06:24:00.210Z,1.92
2023-01-11T06:26:28.090Z,1.92
2023-01-11T06:28:56.021Z,2.13
2023-01-11T06:31:23.997Z,2.28
2023-01-11T06:33:51.957Z,1.92
2023-01-11T06:36:19.915Z,2.50
2023-01-11T06:38:47.790Z,2.10
2023-01-11T06:41:15.952Z,1.83
2023-01-11T06:43:43.837Z,2.60
2023-01-11T06:46:13.589Z,2.30
2023-01-11T06:48:41.958Z,3.58
2023-01-11T06:51:13.173Z,3.78
2023-01-11T06:53:42.301Z,3.75
2023-01-11T06:56:15.338Z,2.70
2023-01-11T06:58:45.058Z,4.00
2023-01-11T07:01:14.749Z,4.85
2023-01-11T07:03:43.145Z,2.40
2023-01-11T07:06:10.978Z,2.40
2023-01-11T07:08:38.855Z,6.60
2023-01-11T07:11:06.858Z,2.97
2023-01-11T07:13:35.175Z,3.65
2023-01-11T07:16:03.223Z,2.35
2023-01-11T07:18:31.763Z,3.05
2023-01-11T07:20:59.790Z,3.13
2023-01-11T07:23:27.809Z,3.67
2023-01-11T07:25:55.705Z,3.58
2023-01-11T07:28:23.655Z,3.17
2023-01-11T07:30:58.637Z,3.42
2023-01-11T07:33:27.599Z,3.40
2023-01-11T07:35:56.154Z,4.47
2023-01-11T07:38:24.210Z,3.50
2023-01-11T07:40:52.236Z,8.30
2023-01-11T07:43:23.004Z,5.15
2023-01-11T07:45:52.381Z,4.35
2023-01-11T07:48:26.316Z,4.25
2023-01-11T07:50:55.357Z,4.28
2023-01-11T07:53:25.956Z,3.85
2023-01-11T07:55:57.417Z,4.53
2023-01-11T07:58:25.470Z,4.32
2023-01-11T08:00:54.947Z,4.50
2023-01-11T08:03:23.021Z,4.25
2023-01-11T08:05:52.379Z,3.38
2023-01-11T08:08:20.935Z,4.10
2023-01-11T08:11:08.958Z,4.25
2023-01-11T08:13:55.404Z,3.72
2023-01-11T08:16:23.585Z,4.95
2023-01-11T08:18:52.683Z,3.95
2023-01-11T08:21:21.401Z,5.20
2023-01-11T08:23:49.382Z,4.53
2023-01-11T08:26:17.932Z,5.43
2023-01-11T08:28:46.387Z,6.85
2023-01-11T08:31:15.883Z,5.35
2023-01-11T08:33:43.845Z,5.55
2023-01-11T08:36:12.712Z,6.38
2023-01-11T08:38:40.658Z,5.63
2023-01-11T08:41:10.768Z,11.50
2023-01-11T08:43:41.885Z,7.45
2023-01-11T08:46:10.235Z,5.30
2023-01-11T08:48:38.255Z,6.82
2023-01-11T08:51:25.805Z,5.97
2023-01-11T08:53:53.858Z,6.63
2023-01-11T08:56:21.781Z,6.82
2023-01-11T08:58:49.648Z,6.82
2023-01-11T09:01:21.625Z,8.75
2023-01-11T09:03:49.500Z,8.40
2023-01-11T09:06:18.834Z,5.47
2023-01-11T09:08:47.698Z,7.80
2023-01-11T09:11:47.323Z,7.50
2023-01-11T09:14:15.233Z,8.13
2023-01-11T09:16:43.100Z,7.07
2023-01-11T09:19:11.002Z,6.90
2023-01-11T09:21:38.839Z,6.55
2023-01-11T09:24:31.899Z,12.90
2023-01-11T09:27:00.439Z,7.22
2023-01-11T09:29:28.717Z,8.60
2023-01-11T09:31:56.675Z,8.43
2023-01-11T09:34:27.107Z,9.85
2023-01-11T09:36:57.438Z,7.13
2023-01-11T09:39:27.613Z,8.53
2023-01-11T09:42:39.595Z,6.25
2023-01-11T09:45:18.962Z,5.72
2023-01-11T09:47:50.983Z,6.47
2023-01-11T09:50:31.975Z,4.97
2023-01-11T09:53:07.867Z,6.03
2023-01-11T09:55:37.608Z,5.20
2023-01-11T09:58:53.412Z,6.13
2023-01-11T10:01:34.969Z,5.45
2023-01-11T10:04:28.339Z,6.40
2023-01-11T10:07:34.579Z,5.82
2023-01-11T10:18:39.624Z,9.40
2023-01-11T10:19:57.476Z,10.65
2023-01-11T10:22:33.560Z,6.88
2023-01-11T10:25:11.593Z,7.57
2023-01-11T10:28:14.943Z,7.30
2023-01-11T10:31:08.063Z,7.30
2023-01-11T10:34:18.488Z,7.07
